Terminal Aerodrome Forecast
Issued by NWS

Home | Current Version | Previous Version | Text Only | Print | Product List | Glossary On
Versions: 1 2 3 4 5 6 7 8 9 10 11 12 13 14 15 16 17 18 19 20 21 22 23 24
000
FTUS44 KOUN 282320
TAFGAG
TAF
KGAG 282320Z 2900/2924 16012G20KT P6SM BKN250
     FM290500 16012KT P6SM VCSH OVC050
      TEMPO 2905/2909 5SM -TSRA OVC030CB
     FM291300 21008KT P6SM BKN120
     FM291800 33014KT P6SM SCT250=

USA.gov is the U.S. government's official web portal to all federal, state and local government web resources and services.